createdAt,value
2019-03-29T00:00:02.755Z,997.2
2019-03-29T00:01:05.075Z,997.2
2019-03-29T00:02:06.624Z,997.2
2019-03-29T00:03:08.966Z,997.2
2019-03-29T00:04:10.397Z,997.3
2019-03-29T00:05:11.709Z,997.3
2019-03-29T00:06:12.974Z,997.3
2019-03-29T00:07:14.267Z,997.3
2019-03-29T00:08:15.534Z,997.4
2019-03-29T00:09:16.829Z,997.3
2019-03-29T00:10:18.111Z,997.2
2019-03-29T00:11:19.377Z,997.4
2019-03-29T00:12:20.645Z,997.3
2019-03-29T00:13:23.871Z,997.3
2019-03-29T00:14:27.451Z,997.3
2019-03-29T00:15:28.759Z,997.3
2019-03-29T00:16:30.059Z,997.3
2019-03-29T00:17:31.599Z,997.2
2019-03-29T00:18:32.857Z,997.3
2019-03-29T00:19:34.159Z,997.3
2019-03-29T00:20:35.446Z,997.3
2019-03-29T00:21:36.686Z,997.2
2019-03-29T00:22:37.917Z,997.2
2019-03-29T00:23:39.149Z,997.3
2019-03-29T00:24:41.769Z,997.3
2019-03-29T00:25:43.043Z,997.3
2019-03-29T00:26:44.305Z,997.3
2019-03-29T00:27:45.869Z,997.2
2019-03-29T00:28:47.101Z,997.3
2019-03-29T00:29:48.357Z,997.2
2019-03-29T00:30:49.645Z,997.3
2019-03-29T00:31:50.910Z,997.3
2019-03-29T00:32:52.155Z,997.3
2019-03-29T00:33:56.115Z,997.3
2019-03-29T00:34:57.385Z,997.3
2019-03-29T00:35:59.218Z,997.3
2019-03-29T00:37:01.157Z,997.3
2019-03-29T00:38:02.393Z,997.3
2019-03-29T00:39:03.685Z,997.3
2019-03-29T00:40:04.967Z,997.2
2019-03-29T00:41:06.271Z,997.2
2019-03-29T00:42:07.531Z,997.3
2019-03-29T00:43:09.736Z,997.3
2019-03-29T00:44:11.011Z,997.3
2019-03-29T00:45:12.267Z,997.3
2019-03-29T00:46:13.593Z,997.3
2019-03-29T00:47:14.853Z,997.1
2019-03-29T00:48:16.126Z,997.2
2019-03-29T00:49:17.379Z,997.2
2019-03-29T00:50:18.628Z,997.1
2019-03-29T00:51:19.931Z,997.2
2019-03-29T00:52:21.196Z,997.2
2019-03-29T00:53:22.447Z,997.1
2019-03-29T00:54:23.687Z,997.2
2019-03-29T00:55:24.935Z,997.1
2019-03-29T00:56:26.202Z,997.1
2019-03-29T00:57:27.469Z,997.1
2019-03-29T00:58:30.955Z,997.1
2019-03-29T00:59:33.303Z,997.1
2019-03-29T01:00:34.861Z,997.1
2019-03-29T01:01:36.461Z,997.2
2019-03-29T01:02:37.714Z,997.1
2019-03-29T01:03:39.285Z,997.1
2019-03-29T01:04:40.532Z,997
2019-03-29T01:05:41.813Z,997
2019-03-29T01:06:43.098Z,997
2019-03-29T01:07:44.418Z,997
2019-03-29T01:08:45.677Z,997.1
2019-03-29T01:09:46.947Z,997
2019-03-29T01:10:49.563Z,997
2019-03-29T01:11:50.861Z,997
2019-03-29T01:12:53.177Z,997
2019-03-29T01:13:54.430Z,996.9
2019-03-29T01:14:55.688Z,996.9
2019-03-29T01:15:57.036Z,996.9
2019-03-29T01:17:00.725Z,996.8
2019-03-29T01:18:01.997Z,996.9
2019-03-29T01:19:04.648Z,996.8
2019-03-29T01:20:05.888Z,996.8
2019-03-29T01:21:07.118Z,996.8
2019-03-29T01:22:08.412Z,996.8
2019-03-29T01:23:09.661Z,996.8
2019-03-29T01:24:12.172Z,996.8
2019-03-29T01:25:14.603Z,996.9
2019-03-29T01:26:15.959Z,996.9
2019-03-29T01:27:17.238Z,996.8
2019-03-29T01:28:18.495Z,996.8
2019-03-29T01:29:19.764Z,996.8
2019-03-29T01:30:21.092Z,996.7
2019-03-29T01:31:22.367Z,996.7
2019-03-29T01:32:23.693Z,996.8
2019-03-29T01:33:25.838Z,996.8
2019-03-29T01:34:27.096Z,996.8
2019-03-29T01:35:28.315Z,996.7
2019-03-29T01:36:29.566Z,996.7
2019-03-29T01:37:30.865Z,996.7
2019-03-29T01:38:32.454Z,996.7
2019-03-29T01:39:33.700Z,996.7
2019-03-29T01:40:35.826Z,996.7
2019-03-29T01:41:37.054Z,996.7
2019-03-29T01:42:38.331Z,996.6
2019-03-29T01:43:39.610Z,996.7
2019-03-29T01:44:40.837Z,996.6
2019-03-29T01:45:42.087Z,996.7
2019-03-29T01:46:43.317Z,996.6
2019-03-29T01:47:44.654Z,996.6
2019-03-29T01:48:45.905Z,996.7
2019-03-29T01:49:49.242Z,996.7
2019-03-29T01:50:50.478Z,996.7
2019-03-29T01:51:51.721Z,996.7
2019-03-29T01:52:54.153Z,996.7
2019-03-29T01:53:55.398Z,996.6
2019-03-29T01:54:57.735Z,996.7
2019-03-29T01:55:58.972Z,996.6
2019-03-29T01:57:03.002Z,996.6
2019-03-29T01:58:04.269Z,996.7
2019-03-29T01:59:05.620Z,996.7
2019-03-29T02:00:06.992Z,996.6
2019-03-29T02:01:08.251Z,996.6
2019-03-29T02:02:10.609Z,996.6
2019-03-29T02:03:15.360Z,996.6
2019-03-29T02:04:16.607Z,996.6
2019-03-29T02:05:17.857Z,996.5
2019-03-29T02:06:20.442Z,996.5
2019-03-29T02:07:21.690Z,996.6
2019-03-29T02:08:37.735Z,996.4
2019-03-29T02:09:40.120Z,996.6
2019-03-29T02:10:41.354Z,996.5
2019-03-29T02:11:42.603Z,996.6
2019-03-29T02:12:43.838Z,996.5
2019-03-29T02:13:45.098Z,996.5
2019-03-29T02:14:46.359Z,996.6
2019-03-29T02:15:47.624Z,996.7
2019-03-29T02:16:48.870Z,996.6
2019-03-29T02:17:50.143Z,996.6
2019-03-29T02:18:52.468Z,996.6
2019-03-29T02:19:56.018Z,996.5
2019-03-29T02:20:57.250Z,996.6
2019-03-29T02:21:58.494Z,996.6
2019-03-29T02:22:59.730Z,996.5
2019-03-29T02:24:01.048Z,996.5
2019-03-29T02:25:02.279Z,996.7
2019-03-29T02:26:03.556Z,996.7
2019-03-29T02:27:04.826Z,996.6
2019-03-29T02:28:06.080Z,996.5
2019-03-29T02:29:07.364Z,996.5
2019-03-29T02:30:08.619Z,996.6
2019-03-29T02:31:09.856Z,996.5
2019-03-29T02:32:11.151Z,996.6
2019-03-29T02:33:12.404Z,996.6
2019-03-29T02:34:16.571Z,996.6
2019-03-29T02:35:17.814Z,996.5
2019-03-29T02:36:19.056Z,996.5
2019-03-29T02:37:20.585Z,996.4
2019-03-29T02:38:23.510Z,996.5
2019-03-29T02:39:26.687Z,996.5
2019-03-29T02:40:28.299Z,996.5
2019-03-29T02:41:29.563Z,996.4
2019-03-29T02:42:30.841Z,996.6
2019-03-29T02:43:32.088Z,996.5
2019-03-29T02:44:35.670Z,996.5
2019-03-29T02:45:36.943Z,996.4
2019-03-29T02:46:38.216Z,996.4
2019-03-29T02:47:39.464Z,996.5
2019-03-29T02:48:40.705Z,996.4
2019-03-29T02:49:42.029Z,996.5
2019-03-29T02:50:43.310Z,996.5
2019-03-29T02:51:44.570Z,996.4
2019-03-29T02:52:45.843Z,996.5
2019-03-29T02:53:47.088Z,996.5
2019-03-29T02:54:48.374Z,996.4
2019-03-29T02:55:49.600Z,996.5
2019-03-29T02:56:50.832Z,996.5
2019-03-29T02:57:52.086Z,996.5
2019-03-29T02:58:53.412Z,996.4
2019-03-29T02:59:54.696Z,996.4
2019-03-29T03:00:55.986Z,996.4
2019-03-29T03:01:57.272Z,996.3
2019-03-29T03:02:58.522Z,996.4
2019-03-29T03:03:59.813Z,996.4
2019-03-29T03:05:02.065Z,996.5
2019-03-29T03:06:03.313Z,996.4
2019-03-29T03:07:04.624Z,996.5
2019-03-29T03:08:05.875Z,996.5
2019-03-29T03:09:15.091Z,996.4
2019-03-29T03:10:16.513Z,996.4
2019-03-29T03:11:17.778Z,996.4
2019-03-29T03:12:19.014Z,996.3
2019-03-29T03:13:20.288Z,996.5
2019-03-29T03:14:21.560Z,996.5
2019-03-29T03:15:22.836Z,996.2
2019-03-29T03:16:24.123Z,996.4
2019-03-29T03:17:25.394Z,996.4
2019-03-29T03:18:26.632Z,996.4
2019-03-29T03:19:27.892Z,996.4
2019-03-29T03:20:29.214Z,996.4
2019-03-29T03:21:30.529Z,996.4
2019-03-29T03:22:31.800Z,996.4
2019-03-29T03:23:33.056Z,996.4
2019-03-29T03:24:34.296Z,996.5
2019-03-29T03:25:35.587Z,996.5
2019-03-29T03:26:36.871Z,996.4
2019-03-29T03:27:38.120Z,996.4
2019-03-29T03:28:39.392Z,996.3
2019-03-29T03:29:40.644Z,996.4
2019-03-29T03:30:41.935Z,996.4
2019-03-29T03:31:43.221Z,996.3
2019-03-29T03:32:44.509Z,996.4
2019-03-29T03:33:45.773Z,996.4
2019-03-29T03:34:47.022Z,996.4
2019-03-29T03:35:48.760Z,996.4
2019-03-29T03:36:50.082Z,996.3
2019-03-29T03:37:51.356Z,996.4
2019-03-29T03:38:52.622Z,996.4
2019-03-29T03:39:53.876Z,996.4
2019-03-29T03:40:55.167Z,996.4
2019-03-29T03:41:56.412Z,996.3
2019-03-29T03:42:57.664Z,996.3
2019-03-29T03:43:58.927Z,996.3
2019-03-29T03:45:00.533Z,996.3
2019-03-29T03:46:01.913Z,996.2
2019-03-29T03:47:03.343Z,996.3
2019-03-29T03:48:04.599Z,996.4
2019-03-29T03:49:05.856Z,996.4
2019-03-29T03:50:07.148Z,996.4
2019-03-29T03:51:08.451Z,996.3
2019-03-29T03:52:09.713Z,996.3
2019-03-29T03:53:10.959Z,996.3
2019-03-29T03:54:12.233Z,996.3
2019-03-29T03:55:13.494Z,996.3
2019-03-29T03:56:14.781Z,996.2
2019-03-29T03:57:16.055Z,996.2
2019-03-29T03:58:17.677Z,996.1
2019-03-29T03:59:18.931Z,996.2
2019-03-29T04:00:20.195Z,996.2
2019-03-29T04:01:21.479Z,996.2
2019-03-29T04:02:22.721Z,996.2
2019-03-29T04:03:23.978Z,996.2
2019-03-29T04:04:25.247Z,996.1
2019-03-29T04:05:26.506Z,996.2
2019-03-29T04:06:27.836Z,996.2
2019-03-29T04:07:29.087Z,996.1
2019-03-29T04:08:30.369Z,996
2019-03-29T04:09:50.510Z,996.1
2019-03-29T04:10:52.054Z,996
2019-03-29T04:11:53.761Z,996.1
2019-03-29T04:12:55.088Z,995.9
2019-03-29T04:13:56.323Z,995.8
2019-03-29T04:14:57.579Z,996
2019-03-29T04:15:58.821Z,996
2019-03-29T04:17:00.185Z,996
2019-03-29T04:18:01.458Z,996
2019-03-29T04:19:02.749Z,996
2019-03-29T04:20:04.015Z,996
2019-03-29T04:21:05.257Z,996
2019-03-29T04:22:06.589Z,995.8
2019-03-29T04:23:07.851Z,996.1
2019-03-29T04:24:09.121Z,996.1
2019-03-29T04:25:10.379Z,996.1
2019-03-29T04:26:11.626Z,996
2019-03-29T04:27:12.897Z,996
2019-03-29T04:28:14.147Z,996
2019-03-29T04:29:15.397Z,996
2019-03-29T04:30:16.652Z,996.1
2019-03-29T04:31:17.929Z,996
2019-03-29T04:32:19.223Z,996.1
2019-03-29T04:33:20.473Z,996
2019-03-29T04:34:23.747Z,996.1
2019-03-29T04:35:24.999Z,996.1
2019-03-29T04:36:26.260Z,996.1
2019-03-29T04:37:27.837Z,996.1
2019-03-29T04:38:29.103Z,995.8
2019-03-29T04:39:30.388Z,996.2
2019-03-29T04:40:31.632Z,996.1
2019-03-29T04:41:32.876Z,996.1
2019-03-29T04:42:34.137Z,996.1
2019-03-29T04:43:35.403Z,996
2019-03-29T04:44:36.721Z,996.2
2019-03-29T04:45:37.969Z,996.2
2019-03-29T04:46:39.283Z,996.2
2019-03-29T04:47:40.555Z,996.3
2019-03-29T04:48:41.805Z,996.3
2019-03-29T04:49:43.084Z,996.3
2019-03-29T04:50:44.316Z,996.4
2019-03-29T04:51:45.559Z,996.3
2019-03-29T04:52:46.878Z,996.3
2019-03-29T04:53:50.486Z,996.3
2019-03-29T04:54:51.741Z,996.4
2019-03-29T04:55:52.996Z,996.4
2019-03-29T04:56:54.266Z,996.4
2019-03-29T04:57:55.555Z,996.4
2019-03-29T04:58:56.796Z,996.4
2019-03-29T05:00:00.348Z,996.5
2019-03-29T05:01:01.717Z,996.4
2019-03-29T05:02:02.999Z,996.5
2019-03-29T05:03:04.283Z,996.2
2019-03-29T05:04:05.526Z,996.4
2019-03-29T05:05:08.996Z,996.3
2019-03-29T05:06:10.259Z,996.3
2019-03-29T05:07:11.485Z,996.3
2019-03-29T05:08:13.014Z,996.4
2019-03-29T05:09:14.323Z,996.4
2019-03-29T05:10:22.208Z,996.3
2019-03-29T05:11:23.462Z,996.3
2019-03-29T05:12:24.702Z,996.3
2019-03-29T05:13:25.970Z,996.3
2019-03-29T05:14:27.211Z,996.3
2019-03-29T05:15:28.454Z,996.2
2019-03-29T05:16:29.694Z,996.3
2019-03-29T05:17:30.946Z,996.4
2019-03-29T05:18:32.243Z,996.3
2019-03-29T05:19:33.480Z,996.4
2019-03-29T05:20:34.794Z,996.4
2019-03-29T05:21:36.058Z,996.3
2019-03-29T05:22:37.308Z,996.4
2019-03-29T05:23:38.589Z,996.4
2019-03-29T05:24:39.855Z,996.4
2019-03-29T05:25:42.113Z,996.5
2019-03-29T05:26:43.393Z,996.5
2019-03-29T05:27:51.874Z,996.4
2019-03-29T05:28:56.191Z,996.4
2019-03-29T05:29:57.480Z,996.5
2019-03-29T05:30:58.735Z,996.4
2019-03-29T05:32:00.021Z,996.5
2019-03-29T05:33:01.254Z,996.3
2019-03-29T05:34:02.561Z,996.3
2019-03-29T05:35:03.817Z,996.4
2019-03-29T05:36:05.096Z,996.3
2019-03-29T05:37:06.360Z,996.4
2019-03-29T05:38:07.646Z,996.3
2019-03-29T05:39:08.980Z,996.3
2019-03-29T05:40:10.243Z,996.3
2019-03-29T05:41:11.509Z,996.4
2019-03-29T05:42:12.763Z,996.3
2019-03-29T05:43:13.987Z,996.3
2019-03-29T05:44:15.252Z,996.3
2019-03-29T05:45:16.488Z,996.4
2019-03-29T05:46:17.770Z,996.4
2019-03-29T05:47:19.028Z,996.4
2019-03-29T05:48:20.298Z,996.4
2019-03-29T05:49:21.592Z,996.4
2019-03-29T05:50:22.884Z,996.3
2019-03-29T05:51:24.132Z,996.3
2019-03-29T05:52:26.595Z,996.3
2019-03-29T05:53:27.827Z,996.3
2019-03-29T05:54:29.514Z,996.4
2019-03-29T05:55:33.485Z,996.5
2019-03-29T05:56:35.429Z,996.5
2019-03-29T05:57:36.665Z,996.4
2019-03-29T05:58:37.920Z,996.4
2019-03-29T05:59:39.216Z,996.4
2019-03-29T06:00:40.476Z,996.4
2019-03-29T06:01:41.742Z,996.4
2019-03-29T06:02:42.989Z,996.3
2019-03-29T06:03:46.325Z,996.3
2019-03-29T06:04:47.608Z,996.3
2019-03-29T06:05:48.857Z,996.4
2019-03-29T06:06:50.119Z,996.4
2019-03-29T06:07:51.378Z,996.4
2019-03-29T06:08:52.960Z,996.4
2019-03-29T06:09:54.265Z,996.4
2019-03-29T06:10:55.545Z,996.4
2019-03-29T06:11:56.800Z,996.4
2019-03-29T06:12:58.065Z,996.4
2019-03-29T06:13:59.552Z,996.5
2019-03-29T06:15:01.047Z,996.5
2019-03-29T06:16:02.493Z,996.5
2019-03-29T06:17:03.748Z,996.4
2019-03-29T06:18:05.001Z,996.4
2019-03-29T06:19:06.282Z,996.4
2019-03-29T06:20:07.597Z,996.5
2019-03-29T06:21:08.896Z,996.4
2019-03-29T06:22:10.186Z,996.4
2019-03-29T06:23:11.425Z,996.5
2019-03-29T06:24:12.699Z,996.4
2019-03-29T06:25:16.364Z,996.4
2019-03-29T06:26:22.511Z,996.4
2019-03-29T06:27:23.781Z,996.4
2019-03-29T06:28:25.059Z,996.4
2019-03-29T06:29:26.356Z,996.4
2019-03-29T06:30:27.635Z,996.4
2019-03-29T06:31:28.886Z,996.4
2019-03-29T06:32:30.155Z,996.4
2019-03-29T06:33:31.587Z,996.4
2019-03-29T06:34:32.858Z,996.4
2019-03-29T06:35:34.131Z,996.4
2019-03-29T06:36:36.761Z,996.4
2019-03-29T06:37:37.998Z,996.3
2019-03-29T06:38:39.251Z,996.4
2019-03-29T06:39:40.491Z,996.3
2019-03-29T06:40:42.141Z,996.4
2019-03-29T06:41:43.403Z,996.4
2019-03-29T06:42:44.675Z,996.3
2019-03-29T06:43:46.339Z,996.2
2019-03-29T06:44:47.591Z,996.2
2019-03-29T06:45:49.199Z,996.2
2019-03-29T06:46:50.457Z,996.2
2019-03-29T06:47:51.707Z,996.3
2019-03-29T06:48:52.983Z,996.2
2019-03-29T06:49:54.285Z,996.2
2019-03-29T06:50:55.607Z,996.2
2019-03-29T06:51:56.842Z,996.2
2019-03-29T06:52:59.193Z,996.2
2019-03-29T06:54:00.460Z,996.2
2019-03-29T06:55:01.727Z,996.2
2019-03-29T06:56:04.196Z,996.2
2019-03-29T06:57:05.882Z,996.2
2019-03-29T06:58:07.333Z,996.1
2019-03-29T06:59:08.605Z,996.2
2019-03-29T07:00:09.849Z,996.1
2019-03-29T07:01:11.153Z,996.2
2019-03-29T07:02:12.739Z,996.1
2019-03-29T07:03:13.971Z,996.2
2019-03-29T07:04:15.228Z,996.1
2019-03-29T07:05:16.480Z,996.1
2019-03-29T07:06:17.766Z,996
2019-03-29T07:07:19.348Z,996
2019-03-29T07:08:20.641Z,996.2
2019-03-29T07:09:21.943Z,996.2
2019-03-29T07:10:23.285Z,996.1
2019-03-29T07:11:24.981Z,996.2
2019-03-29T07:12:26.232Z,996.2
2019-03-29T07:13:27.479Z,996.2
2019-03-29T07:14:29.866Z,996.2
2019-03-29T07:15:31.112Z,996.1
2019-03-29T07:16:32.414Z,996.1
2019-03-29T07:17:33.661Z,996.1
2019-03-29T07:18:34.890Z,996.1
2019-03-29T07:19:37.379Z,996.2
2019-03-29T07:20:40.971Z,996.1
2019-03-29T07:21:42.251Z,996.2
2019-03-29T07:22:44.570Z,996.2
2019-03-29T07:23:45.836Z,996
2019-03-29T07:24:47.103Z,996.2
2019-03-29T07:25:48.354Z,996.2
2019-03-29T07:26:49.687Z,996.2
2019-03-29T07:27:53.168Z,996.3
2019-03-29T07:28:55.356Z,996.4
2019-03-29T07:29:56.895Z,996.3
2019-03-29T07:30:58.163Z,996.3
2019-03-29T07:31:59.834Z,996.4
2019-03-29T07:33:01.117Z,996.3
2019-03-29T07:34:02.372Z,996.2
2019-03-29T07:35:03.615Z,996.3
2019-03-29T07:36:04.932Z,996.5
2019-03-29T07:37:06.657Z,996.5
2019-03-29T07:38:07.905Z,996.4
2019-03-29T07:39:09.160Z,996.4
2019-03-29T07:40:10.405Z,996.5
2019-03-29T07:41:11.656Z,996.6
2019-03-29T07:42:16.286Z,996.6
2019-03-29T07:43:17.521Z,996.7
2019-03-29T07:44:18.781Z,996.8
2019-03-29T07:45:20.375Z,996.8
2019-03-29T07:46:22.972Z,996.9
2019-03-29T07:47:24.313Z,996.9
2019-03-29T07:48:25.586Z,997
2019-03-29T07:49:27.066Z,996.9
2019-03-29T07:50:28.318Z,996.9
2019-03-29T07:51:30.712Z,996.9
2019-03-29T07:52:39.652Z,996.9
2019-03-29T07:53:40.908Z,996.9
2019-03-29T07:54:42.171Z,996.9
2019-03-29T07:55:47.660Z,997
2019-03-29T07:56:48.896Z,997.1
2019-03-29T07:57:50.182Z,997.2
2019-03-29T07:58:51.434Z,997.2
2019-03-29T07:59:52.708Z,997.1
2019-03-29T08:00:54.000Z,997
2019-03-29T08:01:55.277Z,997.1
2019-03-29T08:02:57.121Z,997
2019-03-29T08:03:58.506Z,997.1
2019-03-29T08:04:59.762Z,997.1
2019-03-29T08:06:01.039Z,997.1
2019-03-29T08:07:02.664Z,997.1
2019-03-29T08:08:06.390Z,997.1
2019-03-29T08:09:22.767Z,996.9
2019-03-29T08:10:31.347Z,997
2019-03-29T08:11:46.950Z,997
2019-03-29T08:12:50.101Z,997
2019-03-29T08:13:51.885Z,997
2019-03-29T08:14:53.157Z,997.1
2019-03-29T08:15:56.776Z,996.7
2019-03-29T08:17:00.398Z,997
2019-03-29T08:18:04.090Z,997.1
2019-03-29T08:19:06.406Z,997
2019-03-29T08:20:41.888Z,997.1
2019-03-29T08:21:45.376Z,997.1
2019-03-29T08:22:46.909Z,996.8
2019-03-29T08:23:48.166Z,996.7
2019-03-29T08:24:49.767Z,996.7
2019-03-29T08:25:51.025Z,996.7
2019-03-29T08:26:52.378Z,997.2
2019-03-29T08:27:56.096Z,997.1
2019-03-29T08:29:00.066Z,997
2019-03-29T08:30:01.400Z,997
2019-03-29T08:31:03.768Z,997.2
2019-03-29T08:32:04.998Z,997.1
2019-03-29T08:33:06.382Z,997.2
2019-03-29T08:34:07.652Z,997.1
2019-03-29T08:35:08.948Z,997.2
2019-03-29T08:36:14.177Z,997.1
2019-03-29T08:37:15.748Z,997.2
2019-03-29T08:38:17.014Z,997.2
2019-03-29T08:39:28.787Z,997.1
2019-03-29T08:40:31.255Z,996.9
2019-03-29T08:41:32.821Z,996.9
2019-03-29T08:42:34.111Z,996.9
2019-03-29T08:43:35.360Z,996.8
2019-03-29T08:44:36.617Z,996.9
2019-03-29T08:45:38.475Z,997.1
2019-03-29T08:46:42.156Z,997.1
2019-03-29T08:47:43.426Z,996.9
2019-03-29T08:48:47.068Z,996.8
2019-03-29T08:49:48.352Z,996.8
2019-03-29T08:50:49.643Z,996.8
2019-03-29T08:51:50.970Z,996.8
2019-03-29T08:52:52.822Z,997
2019-03-29T08:53:54.109Z,997
2019-03-29T08:54:55.768Z,997
2019-03-29T08:56:04.229Z,997.1
2019-03-29T08:57:05.477Z,997.3
2019-03-29T08:58:06.770Z,997.4
2019-03-29T08:59:08.300Z,997.6
2019-03-29T09:00:09.869Z,997.7
2019-03-29T09:01:11.190Z,997.8
2019-03-29T09:02:12.470Z,997.3
2019-03-29T09:03:15.060Z,997.1
2019-03-29T09:04:16.320Z,997.3
2019-03-29T09:05:17.586Z,997
2019-03-29T09:06:18.914Z,997.3
2019-03-29T09:07:20.189Z,996.9
2019-03-29T09:08:21.846Z,997.3
2019-03-29T09:09:23.119Z,997.1
2019-03-29T09:10:24.379Z,997.6
2019-03-29T09:11:33.213Z,997.5
2019-03-29T09:12:34.477Z,997.4
2019-03-29T09:13:38.238Z,997.3
2019-03-29T09:14:39.849Z,996.9
2019-03-29T09:15:41.117Z,997.3
2019-03-29T09:16:43.636Z,997.4
2019-03-29T09:17:44.923Z,997.3
2019-03-29T09:18:49.827Z,997.2
2019-03-29T09:19:51.256Z,997
2019-03-29T09:20:52.532Z,997
2019-03-29T09:21:53.848Z,996.9
2019-03-29T09:22:57.542Z,996.9
2019-03-29T09:23:59.425Z,996.8
2019-03-29T09:25:01.138Z,996.9
2019-03-29T09:26:05.119Z,996.6
2019-03-29T09:27:06.704Z,996.5
2019-03-29T09:28:07.940Z,996.3
2019-03-29T09:29:09.251Z,996.5
2019-03-29T09:30:11.987Z,996.2
2019-03-29T09:31:13.257Z,996.3
2019-03-29T09:32:14.755Z,996
2019-03-29T09:33:18.163Z,996
2019-03-29T09:34:19.417Z,996
2019-03-29T09:35:20.682Z,996
2019-03-29T09:36:21.948Z,995.7
2019-03-29T09:37:23.503Z,995.6
2019-03-29T09:38:25.895Z,995.9
2019-03-29T09:39:27.169Z,995.8
2019-03-29T09:40:28.721Z,995.8
2019-03-29T09:41:30.013Z,995.8
2019-03-29T09:42:31.556Z,995.8
2019-03-29T09:43:32.874Z,996.2
2019-03-29T09:44:35.223Z,996.5
2019-03-29T09:45:36.511Z,996.3
2019-03-29T09:46:37.913Z,996.2
2019-03-29T09:47:41.880Z,996.3
2019-03-29T09:48:43.152Z,996.5
2019-03-29T09:49:44.427Z,996.5
2019-03-29T09:50:51.114Z,996.3
2019-03-29T09:51:52.628Z,996.3
2019-03-29T09:52:53.911Z,996.4
2019-03-29T09:53:58.567Z,996.2
2019-03-29T09:54:59.981Z,996.3
2019-03-29T09:56:01.293Z,995.9
2019-03-29T09:57:02.621Z,995.9
2019-03-29T09:58:03.955Z,996.1
2019-03-29T09:59:05.225Z,996.2
2019-03-29T10:00:23.167Z,996.3
2019-03-29T10:01:26.153Z,996.4
2019-03-29T10:02:27.436Z,996.3
2019-03-29T10:03:31.013Z,996
2019-03-29T10:04:32.465Z,996.4
2019-03-29T10:05:33.937Z,996.2
2019-03-29T10:06:35.735Z,996.3
2019-03-29T10:07:36.984Z,996.2
2019-03-29T10:08:38.274Z,996.3
2019-03-29T10:09:39.835Z,996.3
2019-03-29T10:10:41.160Z,996.3
2019-03-29T10:11:43.553Z,996.4
2019-03-29T10:12:45.257Z,996.3
2019-03-29T10:13:46.553Z,996.4
2019-03-29T10:14:49.318Z,996.3
2019-03-29T10:15:52.273Z,996.3
2019-03-29T10:16:54.959Z,996.2
2019-03-29T10:17:58.709Z,996.3
2019-03-29T10:19:00.039Z,996.3
2019-03-29T10:20:01.323Z,996.1
2019-03-29T10:21:02.585Z,996.2
2019-03-29T10:22:03.881Z,996.2
2019-03-29T10:23:05.385Z,996.2
2019-03-29T10:24:06.968Z,996.2
2019-03-29T10:25:20.465Z,996.2
2019-03-29T10:26:21.801Z,996.2
2019-03-29T10:27:24.075Z,996.1
2019-03-29T10:28:25.721Z,996.1
2019-03-29T10:29:27.008Z,996.1
2019-03-29T10:30:28.265Z,996
2019-03-29T10:31:33.446Z,996.1
2019-03-29T10:32:34.704Z,996
2019-03-29T10:33:35.977Z,996.1
2019-03-29T10:34:38.347Z,996
2019-03-29T10:35:52.817Z,996
2019-03-29T10:38:24.621Z,995.9
2019-03-29T10:39:27.487Z,995.9
2019-03-29T10:40:29.265Z,995.9
2019-03-29T10:41:34.099Z,995.8
2019-03-29T10:42:56.572Z,995.8
2019-03-29T10:43:58.443Z,995.8
2019-03-29T10:44:59.729Z,995.7
2019-03-29T10:46:01.035Z,995.7
2019-03-29T10:47:02.309Z,995.7
2019-03-29T10:48:03.573Z,995.8
2019-03-29T10:49:04.825Z,995.6
2019-03-29T10:50:06.183Z,995.7
2019-03-29T10:51:09.129Z,995.6
2019-03-29T10:52:10.767Z,995.6
2019-03-29T10:53:22.466Z,995.6
2019-03-29T10:54:30.627Z,995.6
2019-03-29T10:55:39.419Z,995.6
2019-03-29T10:56:42.448Z,995.5
2019-03-29T10:57:46.799Z,995.5
2019-03-29T10:58:48.277Z,995.5
2019-03-29T10:59:49.521Z,995.4
2019-03-29T11:00:50.892Z,995.4
2019-03-29T11:01:55.004Z,995.3
2019-03-29T11:02:58.630Z,995.4
2019-03-29T11:03:59.879Z,995.4
2019-03-29T11:05:01.237Z,995.3
2019-03-29T11:06:03.484Z,995.4
2019-03-29T11:07:04.820Z,995.3
2019-03-29T11:08:11.543Z,995.3
2019-03-29T11:09:13.527Z,995.3
2019-03-29T11:10:19.786Z,995.2
2019-03-29T11:11:21.064Z,995.2
2019-03-29T11:12:22.690Z,995.2
2019-03-29T11:13:23.950Z,995.1
2019-03-29T11:14:25.560Z,994.9
2019-03-29T11:15:26.890Z,995
2019-03-29T11:16:29.270Z,995
2019-03-29T11:17:30.578Z,994.8
2019-03-29T11:18:31.846Z,994.9
2019-03-29T11:19:33.400Z,994.9
2019-03-29T11:20:34.681Z,994.9
2019-03-29T11:21:35.957Z,994.9
2019-03-29T11:22:37.295Z,994.8
2019-03-29T11:23:38.856Z,994.8
2019-03-29T11:24:40.611Z,994.7
2019-03-29T11:25:44.304Z,994.7
2019-03-29T11:26:45.568Z,994.6
2019-03-29T11:27:49.313Z,994.6
2019-03-29T11:28:51.638Z,994.6
2019-03-29T11:29:52.916Z,994.6
2019-03-29T11:30:55.312Z,994.6
2019-03-29T11:31:57.235Z,994.7
2019-03-29T11:33:02.974Z,994.6
2019-03-29T11:34:05.239Z,994.6
2019-03-29T11:35:06.632Z,994.5
2019-03-29T11:36:07.882Z,994.6
2019-03-29T11:37:10.705Z,994.5
2019-03-29T11:38:12.252Z,994.4
2019-03-29T11:39:13.514Z,994.5
2019-03-29T11:40:14.744Z,994.4
2019-03-29T11:41:16.023Z,994.4
2019-03-29T11:42:17.296Z,994.4
2019-03-29T11:43:27.920Z,994.4
2019-03-29T11:44:31.224Z,994.4
2019-03-29T11:45:32.474Z,994.3
2019-03-29T11:46:33.736Z,994.4
2019-03-29T11:47:38.632Z,994.3
2019-03-29T11:48:39.952Z,994.3
2019-03-29T11:49:41.212Z,994.2
2019-03-29T11:50:42.632Z,994.1
2019-03-29T11:51:44.133Z,994.2
2019-03-29T11:52:45.731Z,994.2
2019-03-29T11:53:51.686Z,994.2
2019-03-29T11:54:52.934Z,994.2
2019-03-29T11:55:56.296Z,994.1
2019-03-29T11:57:01.792Z,994.1
2019-03-29T11:58:03.057Z,994.1
2019-03-29T11:59:04.398Z,994.1
2019-03-29T12:00:05.672Z,994.1
2019-03-29T12:01:09.232Z,994
2019-03-29T12:02:10.474Z,994.1
2019-03-29T12:03:11.768Z,994
2019-03-29T12:04:15.140Z,994.1
2019-03-29T12:05:17.579Z,994
2019-03-29T12:06:18.952Z,994
2019-03-29T12:07:20.217Z,994
2019-03-29T12:08:21.743Z,994.1
2019-03-29T12:09:23.368Z,993.9
2019-03-29T12:10:24.646Z,994
2019-03-29T12:11:25.950Z,994
2019-03-29T12:12:29.626Z,993.9
2019-03-29T12:13:42.496Z,993.9
2019-03-29T12:14:44.019Z,993.8
2019-03-29T12:15:46.017Z,993.9
2019-03-29T12:16:47.298Z,993.9
2019-03-29T12:17:48.607Z,993.9
2019-03-29T12:18:54.490Z,993.9
2019-03-29T12:19:55.956Z,993.8
2019-03-29T12:20:57.288Z,993.8
2019-03-29T12:22:01.592Z,993.6
2019-03-29T12:23:02.870Z,993.7
2019-03-29T12:24:14.197Z,993.7
2019-03-29T12:25:15.557Z,993.7
2019-03-29T12:26:16.807Z,993.7
2019-03-29T12:27:21.631Z,993.6
2019-03-29T12:28:22.929Z,993.6
2019-03-29T12:29:24.185Z,993.6
2019-03-29T12:30:32.886Z,993.5
2019-03-29T12:31:34.372Z,993.6
2019-03-29T12:32:35.616Z,993.5
2019-03-29T12:33:37.114Z,993.5
2019-03-29T12:34:38.368Z,993.5
2019-03-29T12:35:39.680Z,993.1
2019-03-29T12:36:40.962Z,993.5
2019-03-29T12:37:42.232Z,993
2019-03-29T12:38:43.496Z,993.4
2019-03-29T12:39:44.979Z,993.3
2019-03-29T12:40:46.435Z,993.3
2019-03-29T12:41:50.009Z,993.3
2019-03-29T12:42:51.264Z,993.3
2019-03-29T12:43:56.727Z,993.2
2019-03-29T12:44:57.978Z,993.2
2019-03-29T12:46:01.095Z,993.2
2019-03-29T12:47:02.383Z,993.2
2019-03-29T12:48:03.634Z,993.2
2019-03-29T12:49:04.990Z,993.1
2019-03-29T12:50:06.252Z,993.2
2019-03-29T12:51:07.546Z,993.1
2019-03-29T12:52:09.059Z,993
2019-03-29T12:53:10.393Z,993.1
2019-03-29T12:54:13.016Z,992.8
2019-03-29T12:55:14.371Z,993
2019-03-29T12:56:16.364Z,993
2019-03-29T12:57:17.633Z,993
2019-03-29T12:58:18.894Z,992.9
2019-03-29T12:59:20.169Z,993
2019-03-29T13:00:24.378Z,992.9
2019-03-29T13:01:40.351Z,992.9
2019-03-29T13:02:41.974Z,992.9
2019-03-29T13:03:43.372Z,992.9
2019-03-29T13:04:47.660Z,992.8
2019-03-29T13:05:48.938Z,992.8
2019-03-29T13:06:50.222Z,992.8
2019-03-29T13:07:53.866Z,992.9
2019-03-29T13:08:55.120Z,992.7
2019-03-29T13:09:56.673Z,992.8
2019-03-29T13:10:58.200Z,992.7
2019-03-29T13:11:59.497Z,992.7
2019-03-29T13:13:01.496Z,992.7
2019-03-29T13:14:11.140Z,992.7
2019-03-29T13:15:12.396Z,992.6
2019-03-29T13:16:13.655Z,992.7
2019-03-29T13:17:14.937Z,992.6
2019-03-29T13:18:16.187Z,992.6
2019-03-29T13:19:19.747Z,992.7
2019-03-29T13:20:21.250Z,992.6
2019-03-29T13:21:22.500Z,992.6
2019-03-29T13:22:23.789Z,992.6
2019-03-29T13:23:25.081Z,992.5
2019-03-29T13:24:26.340Z,992.5
2019-03-29T13:25:27.590Z,992.5